Terminal Aerodrome Forecast
Issued by NWS North Platte, NE

Home | Current Version | Previous Version | Graphics & Text | Print | Product List | Glossary On
Versions: 1 2 3 4 5 6 7 8 9 10 11 12 13
000
FTUS43 KLBF 161120
TAFVTN
TAF
KVTN 161120Z 1612/1712 VRB05KT P6SM OVC250
     FM161500 33008KT P6SM OVC250
     FM161800 36011KT P6SM BKN150
     FM162100 36011KT P6SM OVC025
     FM170000 01010KT P6SM OVC015
     FM170300 01008KT 5SM BR OVC004=

USA.gov is the U.S. government's official web portal to all federal, state and local government web resources and services.